Time;durP1;ratioP1;P1;durP2;ratioP2;P2;SDS_P1;SDS_P2;PMS_P1;PMS_P2;Temp;Humidity;BMP_temperature;BMP_pressure;BME280_temperature;BME280_humidity;BME280_pressure;Samples;Min_cycle;Max_cycle;Signal;HPM_P1;HPM_P2
2022/12/13 00:01:31;;;;;;;31.47;16.00;;;-6.80;99.90;;;;;;5010851;28;20437;-75
2022/12/13 00:03:59;;;;;;;33.83;15.90;;;-6.90;99.90;;;;;;5011218;28;20427;-75
2022/12/13 00:06:25;;;;;;;32.60;15.50;;;-6.90;99.90;;;;;;5011183;28;20414;-74
2022/12/13 00:08:51;;;;;;;33.17;14.57;;;-6.90;99.90;;;;;;5012680;28;20391;-74
2022/12/13 00:11:16;;;;;;;21.83;12.70;;;-6.90;99.90;;;;;;4996602;28;20241;-73
2022/12/13 00:13:42;;;;;;;29.10;14.07;;;-7.00;99.90;;;;;;5014684;28;20550;-74
2022/12/13 00:16:14;;;;;;;31.43;14.37;;;-7.00;99.90;;;;;;5014507;28;20668;-75
2022/12/13 00:18:40;;;;;;;29.83;15.83;;;-7.00;99.90;;;;;;5014433;28;20206;-74
2022/12/13 00:21:13;;;;;;;26.87;14.57;;;-7.00;99.90;;;;;;5014249;28;20510;-73
2022/12/13 00:23:39;;;;;;;30.83;13.90;;;-6.90;99.90;;;;;;5014397;28;20171;-75
2022/12/13 00:26:11;;;;;;;33.00;15.20;;;-7.00;99.90;;;;;;5014473;28;20424;-74
2022/12/13 00:28:37;;;;;;;33.80;15.77;;;-7.10;99.90;;;;;;5014226;28;20175;-75
2022/12/13 00:31:03;;;;;;;24.83;14.23;;;-7.10;99.90;;;;;;4996452;28;20448;-73
2022/12/13 00:33:29;;;;;;;29.33;14.30;;;-7.10;99.90;;;;;;5014141;28;20377;-73
2022/12/13 00:35:55;;;;;;;24.07;13.60;;;-7.10;99.90;;;;;;5014308;28;20830;-74
2022/12/13 00:38:22;;;;;;;31.23;15.03;;;-7.20;99.90;;;;;;4996560;28;20553;-74
2022/12/13 00:40:48;;;;;;;27.30;14.30;;;-7.20;99.90;;;;;;5013619;28;20428;-74
2022/12/13 00:43:14;;;;;;;31.97;14.27;;;-7.20;99.90;;;;;;5014045;28;20397;-75
2022/12/13 00:45:40;;;;;;;23.20;13.27;;;-7.20;99.90;;;;;;5013933;28;20391;-75
2022/12/13 00:48:06;;;;;;;32.50;14.63;;;-7.20;99.90;;;;;;5014014;28;20175;-74
2022/12/13 00:50:32;;;;;;;26.40;13.93;;;-7.20;99.90;;;;;;5013758;28;20447;-75
2022/12/13 00:52:59;;;;;;;32.47;15.30;;;-7.20;99.90;;;;;;5013626;28;20199;-74
2022/12/13 00:55:24;;;;;;;25.40;13.30;;;-7.30;99.90;;;;;;5013910;28;20426;-74
2022/12/13 00:57:50;;;;;;;26.30;14.27;;;-7.30;99.90;;;;;;5013739;28;20403;-74
2022/12/13 01:00:16;;;;;;;28.93;14.00;;;-7.20;99.90;;;;;;5013679;28;20258;-75
2022/12/13 01:02:42;;;;;;;28.17;14.13;;;-7.20;99.90;;;;;;5013203;28;20873;-74
2022/12/13 01:05:08;;;;;;;36.40;13.57;;;-7.20;99.90;;;;;;5013814;28;20421;-74
2022/12/13 01:07:35;;;;;;;26.10;14.67;;;-7.30;99.90;;;;;;5013382;28;20215;-75
2022/12/13 01:10:01;;;;;;;40.03;15.70;;;-7.30;99.90;;;;;;5013562;28;20435;-74
2022/12/13 01:12:26;;;;;;;39.07;13.90;;;-7.30;99.90;;;;;;5013072;28;20950;-75
2022/12/13 01:14:52;;;;;;;30.20;14.57;;;-7.30;99.90;;;;;;5013579;28;20683;-74
2022/12/13 01:17:17;;;;;;;32.37;13.43;;;-7.40;99.90;;;;;;5013631;28;20206;-75
2022/12/13 01:19:43;;;;;;;23.83;12.83;;;-7.30;99.90;;;;;;5012500;28;20183;-74
2022/12/13 01:22:10;;;;;;;21.13;13.50;;;-7.30;99.90;;;;;;5013025;28;20194;-74
2022/12/13 01:24:36;;;;;;;31.10;13.30;;;-7.30;99.90;;;;;;5012542;28;20723;-74
2022/12/13 01:27:01;;;;;;;26.47;13.03;;;-7.40;99.90;;;;;;5013509;28;20541;-74
2022/12/13 01:29:27;;;;;;;30.70;15.57;;;-7.40;99.90;;;;;;5012942;28;20652;-74
2022/12/13 01:31:53;;;;;;;29.63;13.43;;;-7.40;99.90;;;;;;5012431;28;20217;-74
2022/12/13 01:34:21;;;;;;;38.37;13.80;;;-7.50;99.90;;;;;;5013209;28;20592;-73
2022/12/13 01:36:47;;;;;;;25.50;13.20;;;-7.50;99.90;;;;;;5012792;28;20480;-74
2022/12/13 01:39:15;;;;;;;19.70;14.23;;;-7.50;99.90;;;;;;5013025;28;20854;-75
2022/12/13 01:41:42;;;;;;;29.50;13.57;;;-7.50;99.90;;;;;;5012753;28;20473;-74
2022/12/13 01:44:45;;;;;;;22.27;12.00;;;-7.50;99.90;;;;;;4995339;28;20560;-75
2022/12/13 01:47:12;;;;;;;23.40;12.63;;;-7.50;99.90;;;;;;5012733;28;20416;-75
2022/12/13 01:49:37;;;;;;;29.00;14.53;;;-7.40;99.90;;;;;;5012705;28;20949;-75
2022/12/13 01:52:08;;;;;;;27.63;13.80;;;-7.50;99.90;;;;;;5011229;28;20416;-75
2022/12/13 01:54:39;;;;;;;25.53;13.83;;;-7.50;99.90;;;;;;5012650;28;20167;-75
2022/12/13 01:57:09;;;;;;;21.17;13.30;;;-7.50;99.90;;;;;;5012841;28;20488;-75
2022/12/13 01:59:36;;;;;;;27.50;12.67;;;-7.50;99.90;;;;;;5012723;28;20400;-74
2022/12/13 03:32:39;;;;;;;25.40;14.10;;;-7.90;99.90;;;;;;5166823;23;20503;-72
2022/12/13 03:35:05;;;;;;;27.70;14.20;;;-8.00;99.90;;;;;;5001848;28;20413;-73
2022/12/13 03:37:32;;;;;;;31.53;13.63;;;-8.00;99.90;;;;;;5011511;28;20717;-76
2022/12/13 03:39:58;;;;;;;23.40;12.60;;;-8.00;99.90;;;;;;5012953;28;20467;-75
2022/12/13 03:42:23;;;;;;;33.87;17.33;;;-8.00;99.90;;;;;;5012388;28;20431;-75
2022/12/13 03:44:49;;;;;;;29.33;14.97;;;-8.00;99.90;;;;;;5016758;28;20409;-75
2022/12/13 03:47:16;;;;;;;33.40;15.67;;;-8.00;99.90;;;;;;5017074;28;20693;-75
2022/12/13 03:49:41;;;;;;;31.60;13.73;;;-8.00;99.90;;;;;;5014332;28;20186;-75
2022/12/13 03:52:07;;;;;;;31.97;16.40;;;-8.10;99.90;;;;;;5015384;28;20949;-75
2022/12/13 03:54:32;;;;;;;28.77;15.10;;;-8.00;99.90;;;;;;5016137;28;20186;-75
2022/12/13 03:56:58;;;;;;;32.37;14.30;;;-8.10;99.90;;;;;;5015720;28;20186;-75
2022/12/13 03:59:24;;;;;;;33.37;15.30;;;-8.10;99.90;;;;;;5015416;28;20179;-75
2022/12/13 04:01:49;;;;;;;31.53;15.10;;;-8.10;99.90;;;;;;5015511;28;20995;-72
2022/12/13 04:04:15;;;;;;;31.33;14.10;;;-8.00;99.90;;;;;;5015257;28;20253;-73
2022/12/13 04:06:41;;;;;;;31.60;14.40;;;-8.00;99.90;;;;;;5015305;28;20182;-73
2022/12/13 04:09:06;;;;;;;29.23;14.50;;;-8.10;99.90;;;;;;5015196;28;20670;-71
2022/12/13 04:14:16;;;;;;;30.77;13.27;;;-8.10;99.90;;;;;;5015015;28;20242;-72
2022/12/13 04:16:41;;;;;;;32.43;14.10;;;-8.10;99.90;;;;;;5014518;28;20416;-72
2022/12/13 04:19:07;;;;;;;24.53;14.10;;;-8.10;99.90;;;;;;5014473;28;20182;-72
2022/12/13 04:21:32;;;;;;;25.63;14.20;;;-8.10;99.90;;;;;;5013962;28;20193;-72
2022/12/13 04:23:58;;;;;;;26.53;13.50;;;-8.10;99.90;;;;;;5014445;28;20175;-72
2022/12/13 04:26:23;;;;;;;33.60;15.47;;;-8.10;99.90;;;;;;5014200;28;20179;-73
2022/12/13 04:28:49;;;;;;;37.77;15.47;;;-8.10;99.90;;;;;;5014276;28;20270;-73
2022/12/13 04:31:14;;;;;;;31.80;15.23;;;-8.20;99.90;;;;;;5013601;28;20219;-75
2022/12/13 04:33:40;;;;;;;30.80;14.03;;;-8.20;99.90;;;;;;5014333;28;20175;-75
2022/12/13 04:36:06;;;;;;;21.83;13.03;;;-8.20;99.90;;;;;;5014431;28;20262;-75
2022/12/13 04:38:31;;;;;;;25.10;12.60;;;-8.20;99.90;;;;;;5014062;28;20619;-75
2022/12/13 04:41:05;;;;;;;34.90;13.73;;;-8.30;99.90;;;;;;5014002;28;20436;-75
2022/12/13 04:43:31;;;;;;;28.00;14.80;;;-8.20;99.90;;;;;;5013875;28;20196;-76
2022/12/13 04:45:57;;;;;;;35.60;16.37;;;-8.30;99.90;;;;;;5014248;28;20417;-75
2022/12/13 04:48:23;;;;;;;33.87;14.63;;;-8.30;99.90;;;;;;5013816;28;20178;-76
2022/12/13 04:50:48;;;;;;;31.90;15.47;;;-8.20;99.90;;;;;;5013822;28;20854;-73
2022/12/13 04:53:15;;;;;;;32.10;16.20;;;-8.20;99.90;;;;;;5013787;28;20186;-75
2022/12/13 04:55:40;;;;;;;37.53;15.07;;;-8.20;99.90;;;;;;5013158;28;20175;-75
2022/12/13 04:58:06;;;;;;;30.20;15.60;;;-8.20;99.90;;;;;;5014176;28;20410;-76
2022/12/13 05:00:31;;;;;;;32.77;14.60;;;-8.30;99.90;;;;;;5013978;28;20268;-75
2022/12/13 05:02:57;;;;;;;29.60;13.30;;;-8.30;99.90;;;;;;5013488;28;20203;-75
2022/12/13 05:05:22;;;;;;;25.80;12.97;;;-8.30;99.90;;;;;;5013776;28;20675;-75
2022/12/13 05:07:48;;;;;;;28.00;14.37;;;-8.30;99.90;;;;;;5013882;28;20179;-75
2022/12/13 05:10:13;;;;;;;30.77;13.60;;;-8.20;99.90;;;;;;5014274;28;20203;-74
2022/12/13 05:12:39;;;;;;;33.70;14.50;;;-8.20;99.90;;;;;;5013312;28;20199;-75
2022/12/13 05:15:05;;;;;;;25.80;13.50;;;-8.30;99.90;;;;;;5013724;28;20175;-75
2022/12/13 05:17:31;;;;;;;31.23;13.80;;;-8.30;99.90;;;;;;5013147;28;20211;-75
2022/12/13 05:19:56;;;;;;;31.83;13.77;;;-8.30;99.90;;;;;;5013357;28;20449;-75
2022/12/13 05:22:22;;;;;;;23.87;13.67;;;-8.30;99.90;;;;;;5013078;28;20227;-74
2022/12/13 05:24:47;;;;;;;26.77;14.67;;;-8.30;99.90;;;;;;5013236;28;20265;-75
2022/12/13 05:27:13;;;;;;;30.27;13.40;;;-8.30;99.90;;;;;;5013229;28;20186;-75
2022/12/13 05:29:38;;;;;;;29.33;13.83;;;-8.30;99.90;;;;;;5013175;28;20175;-75
2022/12/13 05:32:04;;;;;;;37.23;15.70;;;-8.20;99.90;;;;;;5012615;28;20215;-75
2022/12/13 05:34:30;;;;;;;35.03;14.60;;;-8.30;99.90;;;;;;5012810;28;20189;-76
2022/12/13 05:36:55;;;;;;;34.83;13.90;;;-8.30;99.90;;;;;;5013072;28;20452;-75
2022/12/13 05:39:21;;;;;;;24.90;13.70;;;-8.30;99.90;;;;;;5012901;28;20317;-75
2022/12/13 05:41:46;;;;;;;29.83;15.63;;;-8.40;99.90;;;;;;5012728;28;20686;-75
2022/12/13 05:44:13;;;;;;;32.43;16.57;;;-8.30;99.90;;;;;;5013061;28;20174;-75
2022/12/13 05:46:39;;;;;;;31.80;15.00;;;-8.40;99.90;;;;;;5012777;28;20179;-75
2022/12/13 05:49:04;;;;;;;36.03;13.93;;;-8.30;99.90;;;;;;5013034;28;20864;-75
2022/12/13 05:51:30;;;;;;;29.50;15.17;;;-8.30;99.90;;;;;;5012333;28;20333;-75
2022/12/13 05:53:55;;;;;;;25.50;14.33;;;-8.30;99.90;;;;;;5012881;28;20175;-74
2022/12/13 05:56:21;;;;;;;27.53;11.60;;;-8.30;99.90;;;;;;5012681;28;20251;-75
2022/12/13 05:58:46;;;;;;;25.00;14.10;;;-8.30;99.90;;;;;;5012782;28;20701;-72
2022/12/13 06:01:13;;;;;;;30.73;13.70;;;-8.40;99.90;;;;;;5012183;28;20195;-72
2022/12/13 06:03:40;;;;;;;24.87;13.40;;;-8.30;99.90;;;;;;5012365;28;20199;-73
2022/12/13 06:06:07;;;;;;;29.80;13.93;;;-8.30;99.90;;;;;;5012228;28;20842;-74
2022/12/13 06:08:33;;;;;;;25.53;12.73;;;-8.30;99.90;;;;;;5012349;28;20932;-72
2022/12/13 06:11:00;;;;;;;28.67;14.90;;;-8.40;99.90;;;;;;5012171;28;20440;-72
2022/12/13 06:13:26;;;;;;;24.70;12.63;;;-8.40;99.90;;;;;;4977046;28;20219;-72
2022/12/13 06:15:53;;;;;;;35.07;14.87;;;-8.40;99.90;;;;;;4973275;28;20439;-72
2022/12/13 06:18:18;;;;;;;38.30;15.63;;;-8.40;99.90;;;;;;4973008;28;20418;-72
2022/12/13 06:20:46;;;;;;;29.37;14.47;;;-8.40;99.90;;;;;;4972997;28;20481;-73
2022/12/13 06:23:12;;;;;;;37.80;14.13;;;-8.40;99.90;;;;;;4972798;28;20180;-72
2022/12/13 06:25:37;;;;;;;33.33;14.27;;;-8.40;99.90;;;;;;4974568;28;20731;-73
2022/12/13 06:28:03;;;;;;;32.37;13.27;;;-8.40;99.90;;;;;;4993789;28;20416;-73
2022/12/13 06:30:29;;;;;;;27.53;13.30;;;-8.50;99.90;;;;;;4991261;28;20726;-72
2022/12/13 06:32:55;;;;;;;33.27;14.80;;;-8.40;99.90;;;;;;4987330;28;20512;-71
2022/12/13 06:35:20;;;;;;;27.13;12.33;;;-8.40;99.90;;;;;;4991528;28;20824;-72
2022/12/13 06:37:51;;;;;;;35.70;13.70;;;-8.30;99.90;;;;;;4991711;28;20410;-73
2022/12/13 06:40:16;;;;;;;22.20;12.63;;;-8.30;99.90;;;;;;4991803;28;20176;-76
2022/12/13 06:42:42;;;;;;;28.83;13.60;;;-8.40;99.90;;;;;;4991438;28;20937;-75
2022/12/13 06:45:08;;;;;;;32.10;14.63;;;-8.40;99.90;;;;;;4992025;28;20183;-76
2022/12/13 06:47:33;;;;;;;28.23;14.43;;;-8.40;99.90;;;;;;4992058;28;20168;-76
2022/12/13 06:49:59;;;;;;;24.63;12.93;;;-8.40;99.90;;;;;;4992277;28;20432;-75
2022/12/13 06:52:25;;;;;;;29.00;13.70;;;-8.40;99.90;;;;;;4991595;28;20196;-77
2022/12/13 06:54:50;;;;;;;26.13;14.33;;;-8.40;99.90;;;;;;4992313;28;20172;-73
2022/12/13 06:57:16;;;;;;;31.03;14.00;;;-8.40;99.90;;;;;;4992183;28;20585;-73
2022/12/13 06:59:41;;;;;;;26.43;12.63;;;-8.40;99.90;;;;;;4992124;28;20222;-73
2022/12/13 07:02:07;;;;;;;28.80;13.63;;;-8.50;99.90;;;;;;4991727;28;20203;-73
2022/12/13 07:04:32;;;;;;;29.60;12.93;;;-8.40;99.90;;;;;;4992240;28;20250;-74
2022/12/13 07:06:58;;;;;;;31.93;13.90;;;-8.40;99.90;;;;;;4991943;28;20176;-72
2022/12/13 07:09:23;;;;;;;29.13;12.67;;;-8.30;99.90;;;;;;4991702;28;20590;-72
2022/12/13 07:11:49;;;;;;;28.77;13.83;;;-8.30;99.90;;;;;;4991716;28;20242;-73
2022/12/13 07:14:15;;;;;;;29.67;13.57;;;-8.30;99.90;;;;;;4991663;28;20270;-74
2022/12/13 07:16:40;;;;;;;31.80;13.23;;;-8.20;99.90;;;;;;4991847;28;20172;-74
2022/12/13 07:19:06;;;;;;;28.03;13.40;;;-8.20;99.90;;;;;;4993879;28;20668;-74
2022/12/13 07:21:32;;;;;;;26.90;13.80;;;-8.20;99.90;;;;;;4995462;28;20282;-74
2022/12/13 07:23:57;;;;;;;26.23;13.37;;;-8.20;99.90;;;;;;4995641;28;20418;-73
2022/12/13 07:26:24;;;;;;;34.40;12.63;;;-8.10;99.90;;;;;;4995682;28;20198;-74
2022/12/13 07:28:50;;;;;;;24.10;13.20;;;-8.10;99.90;;;;;;4995754;28;20175;-74
2022/12/13 07:31:16;;;;;;;27.33;13.60;;;-8.10;99.90;;;;;;4993705;28;20470;-74
2022/12/13 07:33:41;;;;;;;29.43;13.33;;;-8.00;99.90;;;;;;4995436;28;20396;-74
2022/12/13 07:36:16;;;;;;;25.33;13.53;;;-7.90;99.90;;;;;;4995476;28;20253;-74
2022/12/13 07:38:42;;;;;;;29.47;13.10;;;-7.90;99.90;;;;;;4996022;28;20171;-74
2022/12/13 07:41:08;;;;;;;23.87;13.53;;;-7.80;99.90;;;;;;4995122;28;20417;-72
2022/12/13 07:43:34;;;;;;;23.63;13.43;;;-7.80;99.90;;;;;;4995390;28;20183;-73
2022/12/13 07:46:05;;;;;;;29.00;12.57;;;-7.70;99.90;;;;;;4992168;28;20410;-74
2022/12/13 07:48:30;;;;;;;24.53;13.70;;;-7.70;99.90;;;;;;4975814;28;20866;-74
2022/12/13 07:51:04;;;;;;;31.73;14.80;;;-7.60;99.90;;;;;;4975623;28;20623;-74
2022/12/13 07:53:30;;;;;;;31.23;14.60;;;-7.50;99.90;;;;;;4975643;28;20319;-73
2022/12/13 07:55:55;;;;;;;33.00;14.57;;;-7.50;99.90;;;;;;4975736;28;20497;-73
2022/12/13 07:58:21;;;;;;;27.00;14.77;;;-7.30;99.90;;;;;;4975550;28;20181;-72
2022/12/13 08:00:47;;;;;;;26.03;13.70;;;-7.30;99.90;;;;;;4975620;28;20180;-74
2022/12/13 08:03:14;;;;;;;25.83;12.10;;;-7.20;99.90;;;;;;4975177;28;20544;-71
2022/12/13 08:05:39;;;;;;;28.70;14.10;;;-7.10;99.90;;;;;;4975657;28;20274;-73
2022/12/13 08:08:08;;;;;;;33.87;15.00;;;-7.00;99.90;;;;;;4975477;28;20453;-72
2022/12/13 08:10:33;;;;;;;27.73;12.93;;;-7.00;99.90;;;;;;4975430;28;20212;-72
2022/12/13 08:13:01;;;;;;;24.93;13.60;;;-6.80;99.90;;;;;;4974907;28;20935;-72
2022/12/13 08:15:27;;;;;;;20.57;12.50;;;-6.70;99.90;;;;;;4975238;28;20175;-73
2022/12/13 08:17:55;;;;;;;24.03;12.83;;;-6.60;99.90;;;;;;4975427;28;20407;-71
2022/12/13 08:20:20;;;;;;;30.60;13.73;;;-6.60;99.90;;;;;;4975740;28;20454;-73
2022/12/13 08:22:57;;;;;;;22.23;11.30;;;-6.50;99.90;;;;;;4976333;28;20459;-73
2022/12/13 08:25:23;;;;;;;27.50;13.77;;;-6.40;99.90;;;;;;4976336;28;20167;-73
2022/12/13 08:27:48;;;;;;;29.93;13.60;;;-6.40;99.90;;;;;;4975694;28;20462;-73
2022/12/13 08:30:14;;;;;;;24.80;13.10;;;-6.30;99.90;;;;;;4975366;28;20421;-73
2022/12/13 08:32:40;;;;;;;28.30;13.47;;;-6.20;99.90;;;;;;4977424;28;20222;-74
2022/12/13 08:35:06;;;;;;;31.53;14.83;;;-6.00;99.90;;;;;;4978453;28;20597;-73
2022/12/13 08:37:31;;;;;;;28.50;14.70;;;-5.90;99.90;;;;;;4978525;28;20176;-72
2022/12/13 08:39:57;;;;;;;32.60;16.07;;;-5.80;99.90;;;;;;4978500;28;20412;-72
2022/12/13 08:42:24;;;;;;;25.27;13.73;;;-5.70;99.90;;;;;;4976093;28;20568;-72
2022/12/13 08:44:51;;;;;;;33.33;15.00;;;-5.70;99.90;;;;;;4975106;28;20168;-73
2022/12/13 08:47:17;;;;;;;26.87;14.50;;;-5.60;99.90;;;;;;4974999;28;20383;-73
2022/12/13 08:49:43;;;;;;;28.10;13.53;;;-5.60;99.90;;;;;;4974810;28;20427;-72
2022/12/13 08:52:08;;;;;;;27.10;14.30;;;-5.50;99.90;;;;;;4974697;28;20411;-72
2022/12/13 08:54:34;;;;;;;28.43;15.07;;;-5.40;99.90;;;;;;4974783;28;20253;-73
2022/12/13 08:56:59;;;;;;;26.03;14.47;;;-5.30;99.90;;;;;;4974589;28;20204;-72
2022/12/13 08:59:25;;;;;;;29.93;14.70;;;-5.20;99.90;;;;;;4973307;28;20177;-72
2022/12/13 09:01:51;;;;;;;25.90;14.20;;;-5.10;99.90;;;;;;4974269;28;20251;-72
2022/12/13 09:04:16;;;;;;;25.83;14.07;;;-4.90;99.90;;;;;;4974556;28;20398;-73
2022/12/13 09:06:42;;;;;;;35.53;19.07;;;-4.70;99.90;;;;;;4974426;28;20670;-72
2022/12/13 09:09:08;;;;;;;37.17;15.20;;;-4.50;99.90;;;;;;4974537;28;20276;-72
2022/12/13 09:11:34;;;;;;;29.27;13.73;;;-4.10;99.90;;;;;;4973859;28;20247;-72
2022/12/13 09:13:59;;;;;;;26.13;15.63;;;-3.60;99.90;;;;;;4974417;28;20438;-72
2022/12/13 09:16:25;;;;;;;41.53;14.43;;;-3.00;99.90;;;;;;4974239;28;20180;-72
2022/12/13 09:18:52;;;;;;;28.50;15.63;;;-2.70;99.90;;;;;;4974065;28;20177;-72
2022/12/13 09:21:18;;;;;;;26.47;13.23;;;-2.30;99.90;;;;;;4973818;28;20210;-72
2022/12/13 09:23:43;;;;;;;23.70;12.50;;;-1.80;99.90;;;;;;4973961;28;20395;-73
2022/12/13 09:26:14;;;;;;;19.70;12.67;;;-1.50;99.90;;;;;;4974197;28;20397;-72
2022/12/13 09:28:40;;;;;;;24.67;12.60;;;-1.20;99.90;;;;;;4973876;28;20211;-72
2022/12/13 09:31:07;;;;;;;17.07;11.73;;;-1.10;99.90;;;;;;4973611;28;20850;-72
2022/12/13 09:33:32;;;;;;;28.43;15.20;;;-0.70;99.90;;;;;;4973711;28;20505;-71
2022/12/13 09:35:58;;;;;;;25.87;13.03;;;-0.50;99.90;;;;;;4973938;28;20455;-73
2022/12/13 09:38:24;;;;;;;25.43;15.40;;;-0.40;99.90;;;;;;4973768;28;20184;-73
2022/12/13 09:40:52;;;;;;;29.40;16.43;;;-0.20;99.90;;;;;;4972957;28;20175;-72
2022/12/13 09:43:24;;;;;;;26.00;13.20;;;-0.20;99.90;;;;;;4973614;28;20210;-73
2022/12/13 09:45:50;;;;;;;27.70;12.97;;;-0.10;99.90;;;;;;4973659;28;20907;-74
2022/12/13 09:48:19;;;;;;;25.47;13.97;;;-0.10;99.90;;;;;;4973648;28;20419;-73
2022/12/13 09:50:45;;;;;;;23.47;12.40;;;-0.10;99.90;;;;;;4973339;28;20557;-73
2022/12/13 09:53:14;;;;;;;22.67;12.73;;;-0.10;99.90;;;;;;4973405;28;20386;-73
2022/12/13 09:55:51;;;;;;;21.40;12.50;;;-0.20;99.90;;;;;;4972146;28;20540;-74
2022/12/13 09:58:20;;;;;;;20.20;12.33;;;0.00;99.90;;;;;;4973440;28;20398;-73
2022/12/13 10:00:48;;;;;;;22.97;12.37;;;-0.10;99.90;;;;;;4973360;28;20431;-74
2022/12/13 10:03:15;;;;;;;20.20;12.80;;;0.00;99.90;;;;;;4973133;28;20476;-73
2022/12/13 10:05:45;;;;;;;24.17;13.40;;;0.00;99.90;;;;;;4973384;28;20401;-74
2022/12/13 10:08:19;;;;;;;20.40;11.90;;;0.10;99.90;;;;;;4973058;28;20419;-73
2022/12/13 10:10:44;;;;;;;20.83;12.17;;;0.10;99.90;;;;;;4973134;28;20455;-74
2022/12/13 10:13:21;;;;;;;19.87;11.17;;;0.10;99.90;;;;;;4972652;28;20416;-73
2022/12/13 10:15:51;;;;;;;23.50;11.70;;;0.20;99.90;;;;;;4973298;28;20180;-73
2022/12/13 10:18:32;;;;;;;19.27;11.60;;;0.00;99.90;;;;;;4973144;28;20454;-74
2022/12/13 10:21:01;;;;;;;17.80;10.43;;;0.10;99.90;;;;;;4973082;28;20420;-74
2022/12/13 10:23:27;;;;;;;21.20;11.40;;;0.00;99.90;;;;;;4972844;28;20907;-73
2022/12/13 10:25:54;;;;;;;23.70;12.87;;;-0.10;99.90;;;;;;4973084;28;20399;-73
2022/12/13 10:28:29;;;;;;;27.93;12.37;;;0.10;99.90;;;;;;4972793;28;20578;-73
2022/12/13 10:30:56;;;;;;;29.57;11.77;;;0.20;99.90;;;;;;4972691;28;20437;-72
2022/12/13 10:33:42;;;;;;;20.90;11.10;;;0.10;99.90;;;;;;4972565;28;20496;-72
2022/12/13 10:36:10;;;;;;;24.33;11.60;;;0.30;99.90;;;;;;4972988;28;20419;-73
2022/12/13 10:38:39;;;;;;;22.13;10.90;;;0.30;99.90;;;;;;4972750;28;20394;-73
2022/12/13 10:41:28;;;;;;;24.50;12.50;;;0.10;99.90;;;;;;4972728;28;20447;-71
2022/12/13 10:44:08;;;;;;;19.80;11.87;;;0.10;99.90;;;;;;4972747;28;20393;-73
2022/12/13 10:46:33;;;;;;;21.40;11.83;;;0.00;99.90;;;;;;4972746;28;20422;-72
2022/12/13 10:48:59;;;;;;;21.13;12.90;;;0.10;99.90;;;;;;4972633;28;20394;-73
2022/12/13 10:51:25;;;;;;;22.83;11.80;;;0.10;99.90;;;;;;4972227;28;20274;-73
2022/12/13 10:53:54;;;;;;;29.17;13.00;;;0.10;99.90;;;;;;4972652;28;20188;-73
2022/12/13 10:56:21;;;;;;;20.80;12.67;;;0.00;99.90;;;;;;4972372;28;20185;-74
2022/12/13 10:58:50;;;;;;;22.50;12.13;;;0.00;99.90;;;;;;4972716;28;20401;-72
2022/12/13 11:01:21;;;;;;;29.03;12.57;;;0.10;99.90;;;;;;4972190;28;20415;-73
2022/12/13 11:03:58;;;;;;;25.47;12.60;;;0.20;99.90;;;;;;4973044;28;20446;-73
2022/12/13 11:06:26;;;;;;;27.00;12.37;;;0.20;99.90;;;;;;4972505;28;20423;-73
2022/12/13 11:08:53;;;;;;;28.37;12.87;;;0.30;99.90;;;;;;4972797;28;20419;-72
2022/12/13 11:11:29;;;;;;;20.70;11.20;;;0.30;99.90;;;;;;4971856;28;20473;-74
2022/12/13 11:14:02;;;;;;;21.50;12.30;;;0.30;99.90;;;;;;4972594;28;20391;-73
2022/12/13 11:16:32;;;;;;;23.00;11.70;;;0.30;99.90;;;;;;4972303;28;20912;-73
2022/12/13 11:19:15;;;;;;;30.53;12.70;;;0.10;99.90;;;;;;4972471;28;20387;-72
2022/12/13 11:21:46;;;;;;;20.57;12.63;;;0.10;99.90;;;;;;4972153;28;20422;-74
2022/12/13 11:24:19;;;;;;;22.90;13.07;;;0.10;99.90;;;;;;4972605;28;20414;-74
2022/12/13 11:26:50;;;;;;;22.23;12.70;;;0.10;99.90;;;;;;4972463;28;20957;-74
2022/12/13 11:29:27;;;;;;;19.57;11.47;;;-0.10;99.90;;;;;;4972211;28;20413;-73
2022/12/13 11:32:11;;;;;;;19.70;12.07;;;0.00;99.90;;;;;;4971897;28;20524;-73
2022/12/13 11:34:50;;;;;;;24.33;13.03;;;0.00;99.90;;;;;;4972126;28;21149;-73
2022/12/13 11:37:24;;;;;;;21.60;11.90;;;-0.20;99.90;;;;;;4972218;28;20416;-73
2022/12/13 11:39:55;;;;;;;27.50;13.37;;;0.00;99.90;;;;;;4970923;28;20767;-74
2022/12/13 11:42:30;;;;;;;30.17;13.07;;;-0.10;99.90;;;;;;4971838;28;20443;-73
2022/12/13 11:45:14;;;;;;;19.63;12.10;;;-0.10;99.90;;;;;;4972234;28;20608;-75
2022/12/13 11:47:57;;;;;;;17.83;10.90;;;-0.10;99.90;;;;;;4970878;28;20420;-74
2022/12/13 11:50:34;;;;;;;22.10;11.13;;;0.00;99.90;;;;;;4972009;28;20488;-74
2022/12/13 11:53:23;;;;;;;24.07;12.87;;;-0.10;99.90;;;;;;4971879;28;20538;-73
2022/12/13 11:55:58;;;;;;;36.73;13.20;;;-0.10;99.90;;;;;;4972138;28;20807;-73
2022/12/13 11:58:34;;;;;;;24.20;11.70;;;-0.20;99.90;;;;;;4972079;28;20411;-73
2022/12/13 12:01:26;;;;;;;111.83;32.33;;;-0.10;99.90;;;;;;4971879;28;20425;-73
2022/12/13 12:04:10;;;;;;;27.77;12.97;;;-0.20;99.90;;;;;;4985839;28;20408;-74
2022/12/13 12:06:46;;;;;;;35.60;15.57;;;-0.20;99.90;;;;;;4994349;28;20831;-73
2022/12/13 12:09:15;;;;;;;30.20;13.30;;;-0.20;99.90;;;;;;4994345;28;20410;-73
2022/12/13 12:12:01;;;;;;;46.07;20.03;;;-0.30;99.90;;;;;;4993152;28;20497;-74
2022/12/13 12:14:42;;;;;;;38.97;16.30;;;-0.20;99.90;;;;;;4994761;28;20917;-75
2022/12/13 12:17:12;;;;;;;33.37;13.30;;;-0.10;99.90;;;;;;4994809;28;20878;-74
2022/12/13 12:19:41;;;;;;;55.83;20.23;;;-0.10;99.90;;;;;;4994841;28;20378;-73
2022/12/13 12:22:19;;;;;;;27.57;12.80;;;-0.10;99.90;;;;;;4994502;28;20529;-73
2022/12/13 12:24:56;;;;;;;75.00;22.17;;;-0.20;99.90;;;;;;4994904;28;20435;-73
2022/12/13 12:27:43;;;;;;;22.33;12.40;;;-0.20;99.90;;;;;;4994799;28;20397;-74
2022/12/13 12:30:13;;;;;;;28.53;13.60;;;-0.20;99.90;;;;;;4997219;28;20433;-73
2022/12/13 12:33:05;;;;;;;23.50;12.60;;;-0.10;99.90;;;;;;4996703;28;20431;-72
2022/12/13 12:35:54;;;;;;;39.17;19.47;;;-0.10;99.90;;;;;;4994934;28;20473;-72
2022/12/13 12:38:19;;;;;;;37.37;16.50;;;0.00;99.90;;;;;;4994358;28;20437;-73
2022/12/13 12:41:14;;;;;;;42.00;20.03;;;-0.20;99.90;;;;;;4994664;28;20443;-73
2022/12/13 12:43:42;;;;;;;22.70;12.90;;;-0.30;99.90;;;;;;4994273;28;20187;-73
2022/12/13 12:46:24;;;;;;;37.93;16.03;;;-0.40;99.90;;;;;;4994379;28;20385;-73
2022/12/13 12:49:22;;;;;;;24.43;12.27;;;-0.50;99.90;;;;;;4994188;28;20411;-73
2022/12/13 12:51:54;;;;;;;17.70;11.63;;;-0.60;99.90;;;;;;4993930;28;20437;-73
2022/12/13 12:54:37;;;;;;;32.27;15.30;;;-0.50;99.90;;;;;;4993772;28;20787;-73
2022/12/13 12:57:38;;;;;;;31.37;15.47;;;-0.40;99.90;;;;;;4994203;28;20377;-73
2022/12/13 13:00:14;;;;;;;33.63;12.17;;;-0.50;99.90;;;;;;4977575;28;20396;-73
2022/12/13 13:02:49;;;;;;;21.10;12.53;;;-0.40;99.90;;;;;;4993903;28;20875;-73
2022/12/13 13:05:22;;;;;;;18.73;10.93;;;-0.40;99.90;;;;;;4994073;28;20395;-72
2022/12/13 13:08:01;;;;;;;23.70;13.30;;;-0.40;99.90;;;;;;4993867;28;20455;-73
2022/12/13 13:10:27;;;;;;;21.57;11.07;;;-0.30;99.90;;;;;;4994227;28;20528;-74
2022/12/13 13:12:54;;;;;;;24.00;12.40;;;-0.30;99.90;;;;;;4993378;28;20425;-73
2022/12/13 13:15:32;;;;;;;20.83;11.57;;;-0.20;99.90;;;;;;4979965;28;20419;-73
2022/12/13 13:17:59;;;;;;;17.80;11.20;;;-0.20;99.90;;;;;;4975181;28;20423;-73
2022/12/13 13:20:26;;;;;;;19.23;11.30;;;-0.20;99.90;;;;;;4973839;28;20386;-73
2022/12/13 13:22:54;;;;;;;23.93;11.60;;;-0.20;99.90;;;;;;4973809;28;20428;-73
2022/12/13 13:25:35;;;;;;;20.97;11.67;;;-0.10;99.90;;;;;;4975082;28;20958;-72
2022/12/13 13:28:07;;;;;;;24.20;12.97;;;-0.10;99.90;;;;;;4973753;28;20403;-73
2022/12/13 13:30:34;;;;;;;18.20;10.93;;;-0.30;99.90;;;;;;4974062;28;20525;-73
2022/12/13 13:33:00;;;;;;;25.80;13.00;;;-0.20;99.90;;;;;;4975407;28;20456;-74
2022/12/13 13:35:32;;;;;;;26.60;12.20;;;-0.20;99.90;;;;;;4975450;28;20487;-74
2022/12/13 13:38:18;;;;;;;21.67;12.10;;;-0.10;99.90;;;;;;4976620;28;20242;-73
2022/12/13 13:40:45;;;;;;;33.57;14.50;;;-0.20;99.90;;;;;;4975359;28;20384;-73
2022/12/13 13:43:11;;;;;;;31.20;12.67;;;-0.30;99.90;;;;;;4975871;28;20401;-73
2022/12/13 13:45:52;;;;;;;32.17;13.43;;;-0.30;99.90;;;;;;4979124;28;20895;-72
2022/12/13 13:48:26;;;;;;;24.17;11.00;;;-0.20;99.90;;;;;;4976748;28;20403;-73
2022/12/13 13:51:11;;;;;;;23.67;10.87;;;-0.20;99.90;;;;;;4975562;28;20472;-72
2022/12/13 13:54:27;;;;;;;34.33;12.57;;;-0.20;99.90;;;;;;4977408;28;20382;-74
2022/12/13 13:57:21;;;;;;;28.93;15.60;;;-0.30;99.90;;;;;;4920853;29;20804;-70
2022/12/13 14:00:01;;;;;;;24.17;12.03;;;-0.30;99.90;;;;;;4974128;28;20939;-73
2022/12/13 14:03:00;;;;;;;34.33;16.50;;;-0.30;99.90;;;;;;4975387;28;20445;-73
2022/12/13 14:05:51;;;;;;;30.80;15.00;;;-0.20;99.90;;;;;;4993037;28;20555;-73
2022/12/13 14:08:33;;;;;;;25.40;11.57;;;-0.20;99.90;;;;;;4981792;28;20433;-71
2022/12/13 14:11:32;;;;;;;23.27;11.97;;;-0.20;99.90;;;;;;4994988;28;20482;-72
2022/12/13 14:14:25;;;;;;;22.10;11.77;;;-0.20;99.90;;;;;;4993438;28;20433;-73